Time;durP1;ratioP1;P1;durP2;ratioP2;P2;SDS_P1;SDS_P2;PMS_P1;PMS_P2;Temp;Humidity;BMP_temperature;BMP_pressure;BME280_temperature;BME280_humidity;BME280_pressure;Samples;Min_cycle;Max_cycle;Signal;HPM_P1;HPM_P2
2022/07/29 00:02:11;;;;;;;4.13;1.13;;;14.40;99.90;;;;;;4994857;28;20188;-58
2022/07/29 00:04:37;;;;;;;5.47;1.70;;;14.40;99.90;;;;;;4999933;28;20026;-58
2022/07/29 00:07:04;;;;;;;7.07;1.67;;;14.40;99.90;;;;;;4989319;28;20153;-58
2022/07/29 00:09:30;;;;;;;1.42;0.95;;;14.30;99.90;;;;;;4992624;28;20531;-58
2022/07/29 00:12:00;;;;;;;2.65;1.25;;;14.30;99.90;;;;;;4995608;28;20040;-58
2022/07/29 00:14:26;;;;;;;7.85;1.58;;;14.20;99.90;;;;;;4990189;28;20109;-58
2022/07/29 00:16:52;;;;;;;3.33;1.98;;;14.20;99.90;;;;;;4990205;28;20397;-58
2022/07/29 00:19:18;;;;;;;2.47;1.20;;;14.10;99.90;;;;;;4992139;28;20417;-58
2022/07/29 00:21:43;;;;;;;3.50;0.98;;;14.10;99.90;;;;;;5001496;28;20030;-58
2022/07/29 00:24:09;;;;;;;5.40;1.77;;;14.00;99.90;;;;;;4991408;28;20033;-58
2022/07/29 00:26:35;;;;;;;1.42;0.93;;;14.00;99.90;;;;;;4991681;28;20027;-58
2022/07/29 00:29:02;;;;;;;5.45;1.27;;;14.00;99.90;;;;;;4993416;28;20059;-59
2022/07/29 00:31:28;;;;;;;3.63;1.50;;;14.00;99.90;;;;;;4990602;28;20027;-58
2022/07/29 00:33:54;;;;;;;5.40;1.23;;;14.00;99.90;;;;;;4994896;28;20052;-58
2022/07/29 00:36:22;;;;;;;6.45;1.65;;;14.00;99.90;;;;;;4991547;28;20027;-57
2022/07/29 00:38:50;;;;;;;3.38;1.25;;;14.00;99.90;;;;;;4990287;28;20045;-58
2022/07/29 00:41:17;;;;;;;3.13;1.27;;;14.00;99.90;;;;;;4994091;28;20093;-58
2022/07/29 00:43:43;;;;;;;4.00;1.27;;;14.00;99.90;;;;;;4989404;28;20050;-58
2022/07/29 00:46:08;;;;;;;8.57;2.03;;;14.00;99.90;;;;;;4989053;28;20077;-58
2022/07/29 00:48:34;;;;;;;6.38;1.65;;;14.10;99.90;;;;;;4990327;28;20026;-58
2022/07/29 00:51:02;;;;;;;5.03;1.42;;;14.10;99.90;;;;;;4989688;28;20046;-58
2022/07/29 00:53:29;;;;;;;6.38;1.38;;;14.20;99.90;;;;;;4990432;28;20106;-58
2022/07/29 00:55:55;;;;;;;2.65;0.93;;;14.20;99.90;;;;;;4990059;28;20062;-58
2022/07/29 00:58:21;;;;;;;4.72;1.10;;;14.20;99.90;;;;;;4987975;28;20034;-58
2022/07/29 01:00:47;;;;;;;2.92;1.27;;;14.20;99.90;;;;;;4991320;28;20022;-57
2022/07/29 01:03:13;;;;;;;4.25;1.10;;;14.20;99.90;;;;;;4997515;28;20030;-58
2022/07/29 01:05:41;;;;;;;6.95;1.38;;;14.20;99.90;;;;;;4991486;28;20181;-57
2022/07/29 01:08:06;;;;;;;4.13;1.02;;;14.10;99.90;;;;;;4990387;28;20022;-58
2022/07/29 01:10:33;;;;;;;5.85;1.20;;;14.10;99.90;;;;;;4992853;28;20029;-58
2022/07/29 01:13:01;;;;;;;6.10;1.40;;;14.00;99.90;;;;;;4991806;28;20494;-59
2022/07/29 01:15:27;;;;;;;10.48;1.48;;;14.00;99.90;;;;;;4988951;28;20019;-58
2022/07/29 01:18:11;;;;;;;5.80;1.20;;;14.00;99.90;;;;;;5002333;28;20397;-57
2022/07/29 01:21:09;;;;;;;2.03;0.88;;;14.00;99.90;;;;;;4992208;28;20037;-57
2022/07/29 01:24:07;;;;;;;7.03;1.05;;;14.00;99.90;;;;;;4991943;28;20038;-57
2022/07/29 01:26:56;;;;;;;5.28;1.17;;;14.00;99.90;;;;;;4995501;28;20026;-59
2022/07/29 01:29:26;;;;;;;4.07;1.10;;;14.00;99.90;;;;;;4993287;28;20386;-58
2022/07/29 01:32:00;;;;;;;6.45;1.08;;;13.90;99.90;;;;;;4991753;28;20108;-58
2022/07/29 01:34:54;;;;;;;3.28;1.17;;;13.90;99.90;;;;;;4989845;28;20022;-58
2022/07/29 01:37:38;;;;;;;4.43;1.58;;;13.90;99.90;;;;;;4995000;28;21515;-58
2022/07/29 01:40:09;;;;;;;6.97;1.45;;;13.80;99.90;;;;;;4995453;28;20049;-58
2022/07/29 01:42:41;;;;;;;5.70;1.27;;;13.80;99.90;;;;;;4993906;28;20042;-58
2022/07/29 01:45:44;;;;;;;6.95;1.30;;;13.80;99.90;;;;;;4994016;28;20037;-58
2022/07/29 01:48:10;;;;;;;6.22;1.92;;;13.80;99.90;;;;;;4976140;28;20041;-59
2022/07/29 01:50:44;;;;;;;9.45;1.60;;;13.80;99.90;;;;;;4984432;28;20040;-59
2022/07/29 01:53:12;;;;;;;4.00;1.58;;;13.80;99.90;;;;;;4989049;28;20033;-59
2022/07/29 01:55:45;;;;;;;6.93;1.30;;;13.70;99.90;;;;;;4988070;28;20398;-57
2022/07/29 01:58:13;;;;;;;2.88;1.42;;;13.80;99.90;;;;;;4988783;28;20046;-58
2022/07/29 02:00:40;;;;;;;4.78;1.80;;;13.80;99.90;;;;;;4984874;28;20033;-57
2022/07/29 02:03:10;;;;;;;8.45;2.08;;;13.80;99.90;;;;;;4983741;28;20077;-58
2022/07/29 02:05:38;;;;;;;3.85;1.35;;;13.80;99.90;;;;;;4991021;28;20487;-58
2022/07/29 02:08:06;;;;;;;3.47;1.10;;;13.80;99.90;;;;;;4988804;28;20045;-59
2022/07/29 02:10:33;;;;;;;3.97;1.05;;;13.80;99.90;;;;;;4989140;28;20490;-58
2022/07/29 02:12:59;;;;;;;5.88;1.35;;;13.80;99.90;;;;;;4987422;28;20076;-58
2022/07/29 02:15:28;;;;;;;2.15;0.80;;;13.80;99.90;;;;;;4990923;28;20081;-57
2022/07/29 02:18:07;;;;;;;4.28;1.40;;;13.80;99.90;;;;;;4991741;28;20042;-59
2022/07/29 02:20:33;;;;;;;2.80;1.27;;;13.80;99.90;;;;;;4990310;28;20038;-57
2022/07/29 02:23:01;;;;;;;6.85;1.48;;;13.80;99.90;;;;;;4990479;28;20081;-57
2022/07/29 02:25:28;;;;;;;4.32;1.30;;;13.80;99.90;;;;;;4995124;28;20425;-58
2022/07/29 02:27:56;;;;;;;5.93;1.60;;;13.80;99.90;;;;;;4990937;28;20503;-58
2022/07/29 02:30:23;;;;;;;5.80;1.40;;;13.80;99.90;;;;;;4997194;28;20037;-58
2022/07/29 02:32:50;;;;;;;2.80;1.77;;;13.70;99.90;;;;;;4992691;28;20033;-58
2022/07/29 02:35:18;;;;;;;5.10;1.50;;;13.70;99.90;;;;;;4991311;28;20097;-58
2022/07/29 02:38:49;;;;;;;4.20;1.75;;;13.80;99.90;;;;;;4994228;28;20508;-58
2022/07/29 02:40:33;;;;;;;4.13;1.20;;;13.80;99.90;;;;;;4991008;28;20037;-57
2022/07/29 02:42:59;;;;;;;6.05;1.30;;;13.80;99.90;;;;;;4990257;28;20046;-58
2022/07/29 02:45:25;;;;;;;5.07;1.40;;;13.80;99.90;;;;;;4998553;28;20022;-57
2022/07/29 02:47:53;;;;;;;3.60;1.15;;;13.70;99.90;;;;;;4992623;28;20059;-58
2022/07/29 02:50:22;;;;;;;3.28;1.65;;;13.80;99.90;;;;;;4991001;28;20030;-58
2022/07/29 02:53:13;;;;;;;5.07;1.38;;;13.80;99.90;;;;;;4992461;28;20475;-58
2022/07/29 02:55:46;;;;;;;5.88;1.33;;;13.80;99.90;;;;;;4997774;28;20100;-57
2022/07/29 02:58:29;;;;;;;6.10;1.90;;;13.80;99.90;;;;;;4990115;28;20524;-58
2022/07/29 03:01:02;;;;;;;4.57;1.40;;;13.80;99.90;;;;;;4988152;28;20120;-58
2022/07/29 03:03:31;;;;;;;7.60;1.98;;;13.70;99.90;;;;;;4988133;28;20039;-58
2022/07/29 03:05:59;;;;;;;4.50;1.20;;;13.80;99.90;;;;;;4992326;28;20030;-58
2022/07/29 03:08:26;;;;;;;7.25;1.50;;;13.70;99.90;;;;;;4993566;28;20117;-58
2022/07/29 03:10:53;;;;;;;3.72;2.08;;;13.70;99.90;;;;;;5000405;28;20031;-57
2022/07/29 03:13:20;;;;;;;7.07;1.38;;;13.70;99.90;;;;;;4991102;28;20060;-57
2022/07/29 03:15:46;;;;;;;3.72;1.40;;;13.70;99.90;;;;;;4992595;28;20134;-57
2022/07/29 03:18:14;;;;;;;2.13;1.40;;;13.60;99.90;;;;;;4989674;28;20039;-59
2022/07/29 03:20:40;;;;;;;8.90;1.50;;;13.60;99.90;;;;;;4992134;28;20038;-59
2022/07/29 03:23:06;;;;;;;5.90;1.80;;;13.60;99.90;;;;;;4996171;28;20093;-59
2022/07/29 03:25:32;;;;;;;4.50;1.38;;;13.60;99.90;;;;;;4993337;28;20508;-58
2022/07/29 03:27:57;;;;;;;6.45;1.67;;;13.60;99.90;;;;;;4990890;28;20035;-58
2022/07/29 03:30:23;;;;;;;3.42;1.35;;;13.60;99.90;;;;;;4998003;28;20026;-58
2022/07/29 03:32:50;;;;;;;4.28;1.75;;;13.60;99.90;;;;;;5000080;28;20076;-58
2022/07/29 03:35:19;;;;;;;3.55;1.48;;;13.50;99.90;;;;;;4989912;28;20129;-58
2022/07/29 03:37:45;;;;;;;4.82;1.77;;;13.50;99.90;;;;;;4990416;28;20383;-58
2022/07/29 03:40:19;;;;;;;4.65;1.25;;;13.50;99.90;;;;;;4993539;28;20534;-58
2022/07/29 03:42:46;;;;;;;5.18;1.58;;;13.50;99.90;;;;;;4997303;28;20506;-57
2022/07/29 03:45:17;;;;;;;4.28;1.50;;;13.60;99.90;;;;;;5000344;28;20502;-58
2022/07/29 03:47:48;;;;;;;3.13;1.40;;;13.60;99.90;;;;;;5001863;28;20029;-58
2022/07/29 03:50:15;;;;;;;4.45;1.50;;;13.60;99.90;;;;;;4995245;28;20030;-58
2022/07/29 03:52:42;;;;;;;3.92;1.45;;;13.60;99.90;;;;;;4992077;28;20172;-58
2022/07/29 03:55:08;;;;;;;3.45;1.33;;;13.50;99.90;;;;;;4997537;28;20072;-58
2022/07/29 03:57:36;;;;;;;6.47;2.53;;;13.50;99.90;;;;;;5001453;28;20410;-58
2022/07/29 04:00:05;;;;;;;2.60;1.52;;;13.50;99.90;;;;;;4997777;28;20030;-59
2022/07/29 04:02:32;;;;;;;9.35;1.88;;;13.60;99.90;;;;;;5003597;28;20030;-58
2022/07/29 04:04:58;;;;;;;5.30;2.08;;;13.60;99.90;;;;;;4995455;28;20102;-58
2022/07/29 04:07:23;;;;;;;5.15;1.50;;;13.50;99.90;;;;;;4990924;28;20034;-58
2022/07/29 04:09:49;;;;;;;4.93;2.60;;;13.60;99.90;;;;;;4997141;28;20359;-58
2022/07/29 04:12:15;;;;;;;7.03;1.80;;;13.60;99.90;;;;;;5004940;28;20476;-57
2022/07/29 04:14:40;;;;;;;6.55;1.70;;;13.50;99.90;;;;;;5011599;28;20040;-58
2022/07/29 04:17:06;;;;;;;5.07;1.48;;;13.50;99.90;;;;;;4999786;28;20042;-57
2022/07/29 04:19:32;;;;;;;6.90;1.25;;;13.50;99.90;;;;;;4993065;28;20026;-57
2022/07/29 04:21:59;;;;;;;6.10;1.90;;;13.50;99.90;;;;;;4988239;28;20061;-57
2022/07/29 04:24:25;;;;;;;3.20;1.67;;;13.60;99.90;;;;;;4988375;28;20022;-57
2022/07/29 04:26:51;;;;;;;6.93;1.52;;;13.60;99.90;;;;;;4990933;28;20030;-57
2022/07/29 04:29:17;;;;;;;5.68;1.52;;;13.70;99.90;;;;;;4992086;28;20482;-60
2022/07/29 04:31:43;;;;;;;6.65;1.70;;;13.70;99.90;;;;;;4993795;28;20067;-58
2022/07/29 04:34:09;;;;;;;2.80;1.48;;;13.80;99.90;;;;;;4995513;28;20113;-62
2022/07/29 04:36:35;;;;;;;5.93;1.65;;;13.80;99.90;;;;;;4990857;28;20026;-58
2022/07/29 04:39:01;;;;;;;3.15;1.50;;;14.00;99.90;;;;;;4995005;28;20057;-58
2022/07/29 04:41:27;;;;;;;3.92;1.70;;;14.00;99.90;;;;;;4995203;28;20513;-58
2022/07/29 04:43:53;;;;;;;4.20;1.58;;;14.10;99.90;;;;;;4996896;28;20046;-58
2022/07/29 04:46:22;;;;;;;7.82;1.80;;;14.10;99.90;;;;;;4998495;28;20029;-61
2022/07/29 04:48:48;;;;;;;6.25;2.20;;;14.20;99.90;;;;;;4989848;28;20054;-58
2022/07/29 04:51:16;;;;;;;4.70;1.40;;;14.30;99.90;;;;;;5004135;28;20078;-58
2022/07/29 04:53:42;;;;;;;11.25;2.92;;;14.40;99.90;;;;;;4990301;28;20026;-59
2022/07/29 04:56:08;;;;;;;4.53;2.65;;;14.50;99.90;;;;;;4999552;28;20084;-59
2022/07/29 04:58:35;;;;;;;4.93;1.40;;;14.60;99.90;;;;;;4991936;28;20030;-59
2022/07/29 05:01:00;;;;;;;6.28;2.22;;;14.60;99.90;;;;;;4989790;28;20080;-59
2022/07/29 05:03:26;;;;;;;7.03;1.42;;;14.70;99.90;;;;;;4989637;28;20026;-59
2022/07/29 05:05:52;;;;;;;4.88;1.95;;;14.70;99.90;;;;;;4990379;28;20108;-57
2022/07/29 05:08:17;;;;;;;7.63;1.48;;;14.80;99.90;;;;;;4989417;28;20042;-58
2022/07/29 05:10:43;;;;;;;5.07;1.60;;;14.90;99.90;;;;;;4999184;28;20490;-59
2022/07/29 05:13:09;;;;;;;6.00;1.65;;;14.90;99.90;;;;;;4990056;28;20030;-58
2022/07/29 05:15:35;;;;;;;8.07;2.22;;;15.00;99.90;;;;;;4992431;28;20022;-58
2022/07/29 05:18:01;;;;;;;7.68;1.42;;;15.10;99.90;;;;;;4992648;28;20121;-59
2022/07/29 05:20:28;;;;;;;8.73;1.98;;;15.20;99.90;;;;;;4989428;28;20026;-58
2022/07/29 05:22:59;;;;;;;5.13;1.40;;;15.30;99.90;;;;;;4997285;28;20035;-59
2022/07/29 05:25:26;;;;;;;6.50;1.60;;;15.30;99.90;;;;;;4991552;28;20050;-57
2022/07/29 05:27:51;;;;;;;6.00;1.35;;;15.40;99.90;;;;;;4993368;28;20121;-58
2022/07/29 05:30:17;;;;;;;6.75;1.83;;;15.40;99.90;;;;;;4992971;28;21119;-58
2022/07/29 05:32:43;;;;;;;4.70;1.90;;;15.40;99.90;;;;;;5005332;28;20041;-58
2022/07/29 05:35:09;;;;;;;7.93;1.90;;;15.50;99.90;;;;;;5000863;28;20030;-58
2022/07/29 05:37:35;;;;;;;6.70;1.52;;;15.50;99.90;;;;;;4992570;28;20046;-58
2022/07/29 05:40:02;;;;;;;7.20;1.88;;;15.50;99.90;;;;;;4991803;28;20023;-58
2022/07/29 05:42:28;;;;;;;3.85;1.67;;;15.60;99.90;;;;;;4994049;28;20054;-58
2022/07/29 05:44:54;;;;;;;4.53;1.77;;;15.60;99.90;;;;;;4992837;28;20038;-58
2022/07/29 05:47:20;;;;;;;6.45;2.10;;;15.70;99.90;;;;;;5001424;28;20061;-58
2022/07/29 05:49:45;;;;;;;5.78;2.17;;;15.80;99.90;;;;;;4994383;28;20031;-58
2022/07/29 05:52:12;;;;;;;9.55;1.77;;;15.80;99.90;;;;;;4993955;28;20039;-58
2022/07/29 05:54:38;;;;;;;5.68;1.75;;;15.90;99.90;;;;;;4994113;28;20081;-59
2022/07/29 05:57:05;;;;;;;5.80;1.70;;;16.00;99.90;;;;;;4996605;28;20030;-59
2022/07/29 05:59:34;;;;;;;5.95;2.10;;;16.00;99.90;;;;;;4993920;28;20022;-58
2022/07/29 06:02:00;;;;;;;3.25;1.42;;;16.10;99.90;;;;;;4996048;28;20034;-57
2022/07/29 06:04:26;;;;;;;6.70;2.38;;;16.20;99.90;;;;;;4996693;28;20084;-59
2022/07/29 06:06:51;;;;;;;4.63;2.00;;;16.20;99.90;;;;;;4998075;28;20381;-57
2022/07/29 06:09:17;;;;;;;4.43;1.75;;;16.30;99.90;;;;;;5013103;28;20454;-58
2022/07/29 06:11:43;;;;;;;4.28;2.10;;;16.30;99.90;;;;;;4992010;28;20347;-58
2022/07/29 06:14:08;;;;;;;6.55;2.67;;;16.20;99.90;;;;;;4996815;28;20165;-58
2022/07/29 06:16:34;;;;;;;6.38;1.80;;;16.20;99.90;;;;;;4998575;28;20474;-58
2022/07/29 06:19:00;;;;;;;5.60;1.45;;;16.20;99.90;;;;;;5013227;28;20035;-58
2022/07/29 06:21:25;;;;;;;6.03;2.08;;;16.20;99.90;;;;;;4988599;28;20552;-58
2022/07/29 06:23:51;;;;;;;8.48;2.40;;;16.10;99.90;;;;;;4999806;28;20045;-59
2022/07/29 06:26:16;;;;;;;6.80;1.60;;;16.10;99.90;;;;;;4996658;28;20406;-59
2022/07/29 06:28:42;;;;;;;4.10;2.00;;;16.20;99.90;;;;;;4989701;28;20026;-59
2022/07/29 06:31:08;;;;;;;9.65;2.00;;;16.20;99.90;;;;;;4991448;28;20026;-59
2022/07/29 06:33:34;;;;;;;8.35;1.75;;;16.20;99.90;;;;;;4997442;28;20030;-59
2022/07/29 06:36:00;;;;;;;2.60;1.58;;;16.30;99.90;;;;;;4997273;28;20030;-59
2022/07/29 06:38:25;;;;;;;12.60;2.05;;;16.40;99.90;;;;;;4995327;28;20038;-59
2022/07/29 06:41:00;;;;;;;5.55;1.80;;;16.40;99.90;;;;;;4992020;28;20136;-59
2022/07/29 06:43:34;;;;;;;3.22;2.03;;;16.50;99.90;;;;;;4991411;28;20052;-59
2022/07/29 06:46:06;;;;;;;5.55;2.00;;;16.60;99.90;;;;;;4998605;28;20489;-58
2022/07/29 06:48:33;;;;;;;9.15;2.47;;;16.70;99.90;;;;;;4997452;28;20031;-58
2022/07/29 06:50:59;;;;;;;6.57;1.65;;;16.90;99.90;;;;;;4992455;28;20034;-58
2022/07/29 06:53:25;;;;;;;7.07;1.70;;;17.00;99.90;;;;;;4991583;28;20026;-57
2022/07/29 06:55:51;;;;;;;7.80;1.73;;;17.10;99.90;;;;;;4995166;28;20038;-57
2022/07/29 06:58:17;;;;;;;8.23;1.52;;;17.20;99.90;;;;;;4995549;28;20533;-58
2022/07/29 07:00:44;;;;;;;5.95;1.65;;;17.40;99.90;;;;;;4992395;28;20100;-58
2022/07/29 07:03:11;;;;;;;8.15;1.90;;;17.50;99.90;;;;;;4989776;28;20072;-58
2022/07/29 07:05:36;;;;;;;4.20;1.60;;;17.60;99.90;;;;;;4995402;28;20030;-59
2022/07/29 07:08:03;;;;;;;6.45;2.13;;;17.70;99.90;;;;;;4991046;28;20117;-60
2022/07/29 07:10:29;;;;;;;4.38;1.70;;;17.80;99.90;;;;;;5003886;28;20030;-58
2022/07/29 07:12:54;;;;;;;7.35;2.45;;;17.90;99.90;;;;;;4991456;28;20121;-58
2022/07/29 07:15:23;;;;;;;6.82;2.03;;;18.00;99.90;;;;;;5001085;28;20163;-58
2022/07/29 07:17:49;;;;;;;6.28;1.50;;;18.10;99.90;;;;;;4991264;28;20486;-58
2022/07/29 07:20:15;;;;;;;5.20;1.67;;;18.30;99.90;;;;;;4990173;28;20149;-58
2022/07/29 07:22:41;;;;;;;5.97;1.70;;;18.40;99.90;;;;;;4992876;28;20026;-57
2022/07/29 07:25:07;;;;;;;9.20;2.22;;;18.50;99.90;;;;;;4999953;28;20042;-59
2022/07/29 07:27:33;;;;;;;6.82;2.00;;;18.60;99.90;;;;;;4999680;28;20049;-58
2022/07/29 07:29:59;;;;;;;4.53;1.38;;;18.60;99.90;;;;;;4990446;28;20426;-58
2022/07/29 07:32:24;;;;;;;7.55;1.77;;;18.60;99.90;;;;;;4987948;28;20081;-58
2022/07/29 07:34:50;;;;;;;7.30;1.52;;;18.80;99.90;;;;;;4989323;28;20026;-58
2022/07/29 07:37:16;;;;;;;8.63;1.88;;;18.80;99.90;;;;;;4992386;28;20042;-60
2022/07/29 07:39:42;;;;;;;6.30;1.73;;;18.90;99.90;;;;;;4995670;28;20030;-58
2022/07/29 07:42:10;;;;;;;4.70;1.95;;;19.00;99.90;;;;;;4994100;28;20035;-58
2022/07/29 07:44:35;;;;;;;5.97;1.70;;;19.10;99.90;;;;;;4980432;28;20489;-58
2022/07/29 07:47:01;;;;;;;6.85;2.10;;;19.20;99.90;;;;;;4989140;28;20076;-58
2022/07/29 07:49:26;;;;;;;5.85;2.05;;;19.20;99.90;;;;;;4989442;28;20026;-58
2022/07/29 07:51:52;;;;;;;5.25;2.50;;;19.30;99.90;;;;;;4990695;28;20026;-58
2022/07/29 07:54:18;;;;;;;6.85;2.08;;;19.50;99.90;;;;;;4994116;28;20490;-58
2022/07/29 07:56:43;;;;;;;12.07;2.00;;;19.50;99.90;;;;;;4994048;28;20026;-58
2022/07/29 07:59:09;;;;;;;8.43;2.00;;;19.60;99.90;;;;;;4997369;28;20479;-59
2022/07/29 08:01:35;;;;;;;4.28;1.42;;;19.70;99.90;;;;;;4993124;28;20030;-59
2022/07/29 08:04:00;;;;;;;4.28;1.90;;;19.80;99.90;;;;;;4990389;28;20098;-59
2022/07/29 08:06:26;;;;;;;10.30;2.17;;;19.80;99.90;;;;;;4988618;28;20478;-59
2022/07/29 08:08:51;;;;;;;9.57;2.25;;;20.00;99.90;;;;;;4991262;28;20367;-59
2022/07/29 08:11:17;;;;;;;5.03;2.00;;;20.10;99.90;;;;;;4997322;28;20034;-58
2022/07/29 08:13:43;;;;;;;4.07;2.00;;;20.30;99.90;;;;;;4997530;28;20032;-58
2022/07/29 08:16:12;;;;;;;6.57;1.35;;;20.30;99.90;;;;;;4987763;28;20111;-58
2022/07/29 08:18:39;;;;;;;4.68;1.65;;;20.30;99.90;;;;;;4990640;28;20064;-58
2022/07/29 08:21:06;;;;;;;4.35;1.88;;;20.60;99.90;;;;;;4989687;28;20034;-59
2022/07/29 08:23:45;;;;;;;6.60;1.60;;;20.60;99.90;;;;;;4994679;28;20030;-59
2022/07/29 08:26:12;;;;;;;5.47;1.95;;;20.90;99.90;;;;;;4981685;28;20042;-59
2022/07/29 08:28:39;;;;;;;9.75;2.10;;;21.10;99.90;;;;;;4982258;28;20034;-59
2022/07/29 08:31:05;;;;;;;9.82;1.73;;;21.20;99.90;;;;;;4981532;28;20031;-58
2022/07/29 08:33:32;;;;;;;7.35;2.33;;;21.30;99.90;;;;;;4989169;28;20031;-57
2022/07/29 08:35:58;;;;;;;3.05;1.60;;;21.50;99.90;;;;;;4991891;28;20030;-58
2022/07/29 08:38:25;;;;;;;3.00;1.50;;;21.60;99.90;;;;;;4988817;28;20035;-58
2022/07/29 08:40:52;;;;;;;3.60;1.25;;;21.60;99.90;;;;;;4988760;28;20034;-59
2022/07/29 08:43:18;;;;;;;5.25;1.60;;;21.60;99.90;;;;;;4982197;28;20054;-56
2022/07/29 08:45:48;;;;;;;4.95;1.05;;;21.70;99.90;;;;;;4995124;28;20029;-59
2022/07/29 08:48:19;;;;;;;3.65;1.25;;;21.80;99.90;;;;;;4981518;28;20058;-59
2022/07/29 08:50:48;;;;;;;2.95;1.50;;;21.80;99.90;;;;;;4990850;28;20042;-59
2022/07/29 08:53:16;;;;;;;5.13;1.50;;;21.90;99.90;;;;;;4985097;28;20562;-59
2022/07/29 08:55:52;;;;;;;5.70;1.40;;;21.90;99.90;;;;;;4989458;28;20022;-58
2022/07/29 08:58:18;;;;;;;5.63;1.42;;;21.80;99.90;;;;;;4985648;28;20031;-58
2022/07/29 09:00:50;;;;;;;5.43;1.20;;;21.70;99.90;;;;;;4985675;28;20521;-58
2022/07/29 09:03:22;;;;;;;3.95;1.20;;;21.70;99.90;;;;;;4984476;28;20112;-59
2022/07/29 09:05:48;;;;;;;7.53;1.58;;;21.60;99.90;;;;;;4989896;28;20441;-59
2022/07/29 09:08:15;;;;;;;7.70;1.80;;;21.60;99.90;;;;;;4983025;28;20027;-59
2022/07/29 09:10:41;;;;;;;9.57;4.45;;;21.60;99.90;;;;;;4988981;28;20034;-58
2022/07/29 09:13:06;;;;;;;8.98;1.70;;;21.60;99.90;;;;;;4977918;28;20027;-59
2022/07/29 09:15:32;;;;;;;5.55;1.50;;;21.60;99.90;;;;;;4989095;28;20120;-59
2022/07/29 09:17:59;;;;;;;5.15;1.33;;;21.60;99.90;;;;;;4984060;28;20046;-58
2022/07/29 09:20:26;;;;;;;7.15;1.77;;;21.60;99.90;;;;;;4991493;28;20061;-59
2022/07/29 09:22:53;;;;;;;11.48;1.90;;;21.60;99.90;;;;;;4988194;28;20080;-58
2022/07/29 09:25:35;;;;;;;2.65;1.15;;;21.70;99.90;;;;;;4986924;28;20085;-57
2022/07/29 09:28:08;;;;;;;;;;;21.80;99.90;;;;;;4982039;28;20133;-59
2022/07/29 09:30:34;;;;;;;3.95;1.38;;;21.80;99.90;;;;;;4988288;28;19913;-58
2022/07/29 09:33:02;;;;;;;5.43;1.70;;;21.90;99.90;;;;;;4984236;28;20029;-57
2022/07/29 09:35:29;;;;;;;7.88;1.40;;;22.00;99.90;;;;;;4986796;28;20026;-59
2022/07/29 09:37:55;;;;;;;3.55;0.93;;;22.00;99.90;;;;;;4995514;28;20073;-58
2022/07/29 09:40:24;;;;;;;2.03;1.10;;;22.10;99.90;;;;;;4984966;28;20030;-58
2022/07/29 09:42:50;;;;;;;5.35;1.30;;;22.20;99.90;;;;;;4994413;28;20069;-57
2022/07/29 09:45:47;;;;;;;3.40;1.17;;;22.30;99.90;;;;;;4980920;28;20034;-57
2022/07/29 09:48:18;;;;;;;4.13;1.58;;;22.20;99.90;;;;;;4967678;28;20486;-59
2022/07/29 09:50:44;;;;;;;4.00;1.35;;;22.20;99.10;;;;;;4983688;28;20542;-57
2022/07/29 09:53:11;;;;;;;3.22;1.20;;;22.30;98.90;;;;;;4985433;28;20030;-58
2022/07/29 09:55:48;;;;;;;3.13;1.15;;;22.40;99.10;;;;;;4988886;28;20029;-59
2022/07/29 09:58:18;;;;;;;6.03;1.20;;;22.50;96.70;;;;;;4981997;28;20043;-58
2022/07/29 10:00:46;;;;;;;4.40;1.02;;;22.70;98.30;;;;;;4986898;28;20026;-58
2022/07/29 10:03:12;;;;;;;3.70;1.35;;;22.90;97.70;;;;;;4984075;28;20038;-59
2022/07/29 10:05:39;;;;;;;2.78;1.00;;;22.90;97.70;;;;;;4987594;28;20375;-58
2022/07/29 10:08:05;;;;;;;4.72;1.00;;;22.80;97.00;;;;;;4986313;28;20038;-59
2022/07/29 10:10:39;;;;;;;5.63;1.30;;;22.90;97.10;;;;;;4984031;28;20031;-59
2022/07/29 10:13:07;;;;;;;1.75;0.90;;;23.10;98.40;;;;;;4983736;28;20034;-59
2022/07/29 10:15:38;;;;;;;2.13;0.98;;;23.10;97.90;;;;;;4994735;28;20030;-62
2022/07/29 10:18:04;;;;;;;7.28;1.45;;;23.20;96.50;;;;;;4993155;28;20042;-59
2022/07/29 10:20:30;;;;;;;6.75;3.78;;;23.30;95.90;;;;;;4994807;28;20022;-59
2022/07/29 10:22:56;;;;;;;2.75;1.25;;;23.40;96.40;;;;;;4989682;28;20473;-58
2022/07/29 10:25:23;;;;;;;6.68;1.17;;;23.60;95.40;;;;;;4989734;28;20026;-58
2022/07/29 10:27:53;;;;;;;2.85;0.82;;;23.70;95.30;;;;;;4990588;28;20026;-58
2022/07/29 10:30:20;;;;;;;6.00;1.30;;;23.70;95.30;;;;;;4990724;28;20620;-58
2022/07/29 10:33:15;;;;;;;6.53;1.38;;;23.70;93.80;;;;;;4995749;28;20073;-57
2022/07/29 10:36:05;;;;;;;4.47;1.17;;;23.70;94.50;;;;;;4987938;28;20435;-58
2022/07/29 10:38:41;;;;;;;3.00;1.13;;;23.80;93.60;;;;;;4985204;28;20043;-59
2022/07/29 10:41:28;;;;;;;2.90;0.80;;;24.10;93.20;;;;;;4986072;28;20037;-58
2022/07/29 10:44:07;;;;;;;3.13;1.00;;;24.10;91.40;;;;;;4987579;28;20046;-58
2022/07/29 10:46:37;;;;;;;3.72;1.20;;;24.00;91.50;;;;;;4988892;28;20133;-58
2022/07/29 10:49:10;;;;;;;2.92;0.82;;;24.20;91.40;;;;;;4989946;28;20038;-59
2022/07/29 10:51:59;;;;;;;4.85;0.80;;;24.10;90.00;;;;;;4984398;28;20061;-58
2022/07/29 10:54:37;;;;;;;2.25;0.85;;;24.30;90.40;;;;;;4987506;28;20054;-58
2022/07/29 10:57:12;;;;;;;10.30;1.13;;;24.60;88.00;;;;;;4987274;28;20486;-58
2022/07/29 10:59:43;;;;;;;3.60;0.93;;;24.80;86.50;;;;;;4989116;28;20034;-59
2022/07/29 11:02:33;;;;;;;1.00;0.80;;;25.00;85.20;;;;;;4991137;28;20038;-59
2022/07/29 11:05:12;;;;;;;4.30;0.70;;;25.10;82.60;;;;;;4990893;28;20035;-58
2022/07/29 11:07:39;;;;;;;8.82;1.52;;;25.20;81.30;;;;;;4993332;28;20022;-57
2022/07/29 11:10:14;;;;;;;6.50;0.88;;;25.60;79.50;;;;;;4989843;28;20084;-58
2022/07/29 11:12:42;;;;;;;3.35;1.20;;;25.90;75.70;;;;;;4989862;28;20117;-58
2022/07/29 11:15:16;;;;;;;5.70;0.90;;;26.20;74.90;;;;;;4987515;28;20034;-58
2022/07/29 11:17:56;;;;;;;5.07;0.80;;;26.60;72.30;;;;;;4991429;28;20035;-57
2022/07/29 11:20:45;;;;;;;6.60;0.73;;;26.90;69.40;;;;;;4987804;28;20112;-57
2022/07/29 11:23:35;;;;;;;2.80;0.90;;;26.80;69.50;;;;;;4986627;28;20085;-59
2022/07/29 11:26:23;;;;;;;5.82;1.00;;;26.80;67.90;;;;;;4993106;28;20072;-59
2022/07/29 11:29:04;;;;;;;3.03;0.70;;;27.00;66.00;;;;;;4991470;28;20473;-59
2022/07/29 11:31:32;;;;;;;3.08;0.82;;;26.90;64.50;;;;;;4987586;28;20025;-58
2022/07/29 11:34:18;;;;;;;2.83;0.90;;;27.40;62.20;;;;;;4994312;28;20030;-59
2022/07/29 11:37:14;;;;;;;2.60;1.20;;;27.60;61.60;;;;;;4988035;28;20073;-59
2022/07/29 11:39:47;;;;;;;5.10;1.17;;;27.90;60.00;;;;;;4990197;28;20113;-58
2022/07/29 11:42:24;;;;;;;2.50;1.10;;;28.30;59.80;;;;;;4981696;28;20390;-59
2022/07/29 11:45:20;;;;;;;1.90;0.70;;;28.60;58.20;;;;;;4990563;28;20494;-58
2022/07/29 11:47:45;;;;;;;9.23;1.20;;;28.70;57.40;;;;;;4985796;28;20038;-58
2022/07/29 11:50:30;;;;;;;3.58;1.73;;;29.10;57.00;;;;;;4986420;28;20041;-59
2022/07/29 11:52:56;;;;;;;4.85;0.90;;;29.50;56.80;;;;;;4987513;28;20022;-59
2022/07/29 11:55:24;;;;;;;6.05;1.05;;;29.20;57.50;;;;;;4990306;28;20547;-59
2022/07/29 11:57:53;;;;;;;5.32;1.02;;;28.90;57.10;;;;;;4989589;28;20042;-59
2022/07/29 12:00:22;;;;;;;3.75;1.10;;;29.00;57.00;;;;;;4988037;28;20899;-59
2022/07/29 12:02:48;;;;;;;3.25;1.40;;;28.20;57.90;;;;;;4987820;28;20034;-61
2022/07/29 12:05:13;;;;;;;3.60;1.23;;;28.70;57.30;;;;;;4993119;28;20538;-59
2022/07/29 12:07:39;;;;;;;5.68;1.55;;;28.90;56.40;;;;;;4991476;28;20049;-57
2022/07/29 12:10:06;;;;;;;4.13;1.45;;;28.50;59.90;;;;;;4987444;28;20026;-59
2022/07/29 12:12:33;;;;;;;3.67;1.02;;;27.70;65.50;;;;;;4978220;28;20038;-57
2022/07/29 12:15:18;;;;;;;5.50;1.05;;;27.00;71.00;;;;;;4989754;28;20045;-58
2022/07/29 12:17:44;;;;;;;5.47;2.05;;;27.50;70.10;;;;;;4987566;28;20446;-58
2022/07/29 12:20:10;;;;;;;4.72;1.05;;;28.40;68.50;;;;;;4986847;28;20038;-58
2022/07/29 12:22:39;;;;;;;5.05;1.20;;;28.70;65.30;;;;;;4993730;28;20027;-58
2022/07/29 12:25:08;;;;;;;3.05;1.23;;;28.80;64.40;;;;;;4989386;28;20034;-59
2022/07/29 12:27:34;;;;;;;3.83;1.20;;;29.20;62.00;;;;;;4986162;28;20065;-61
2022/07/29 12:30:03;;;;;;;5.85;1.00;;;28.90;61.00;;;;;;4984868;28;20031;-59
2022/07/29 12:32:55;;;;;;;3.72;1.10;;;29.10;60.60;;;;;;4984577;28;20030;-58
2022/07/29 12:35:21;;;;;;;9.27;1.70;;;29.20;59.50;;;;;;4982967;28;20512;-59
2022/07/29 12:37:49;;;;;;;5.38;1.60;;;29.50;59.30;;;;;;4987959;28;20034;-58
2022/07/29 12:40:16;;;;;;;6.38;1.33;;;29.60;58.90;;;;;;4985102;28;20406;-58
2022/07/29 12:43:17;;;;;;;2.63;1.15;;;29.40;58.50;;;;;;4981078;28;20034;-58
2022/07/29 12:45:46;;;;;;;2.95;1.08;;;29.20;59.20;;;;;;4984058;28;20038;-58
2022/07/29 12:48:12;;;;;;;4.10;1.88;;;28.80;59.50;;;;;;4986899;28;20054;-58
2022/07/29 12:50:59;;;;;;;4.22;1.27;;;28.40;60.80;;;;;;4988737;28;20033;-59
2022/07/29 12:53:26;;;;;;;3.97;1.23;;;28.70;62.90;;;;;;4981475;28;20398;-57
2022/07/29 12:55:54;;;;;;;5.68;1.30;;;29.10;61.20;;;;;;4988186;28;20085;-58
2022/07/29 12:58:32;;;;;;;4.93;1.52;;;29.30;60.40;;;;;;4982859;28;20700;-58
2022/07/29 13:01:11;;;;;;;6.22;1.98;;;29.40;60.50;;;;;;4990871;28;20022;-58